createdAt,value
2023-04-14T00:01:17.632Z,4.60
2023-04-14T00:05:20.928Z,4.60
2023-04-14T00:09:23.776Z,4.60
2023-04-14T00:13:26.581Z,4.50
2023-04-14T00:17:31.733Z,4.50
2023-04-14T00:21:34.570Z,4.50
2023-04-14T00:25:37.396Z,4.40
2023-04-14T00:29:40.239Z,4.40
2023-04-14T00:33:44.363Z,4.30
2023-04-14T00:37:47.152Z,4.20
2023-04-14T00:41:50.016Z,4.20
2023-04-14T00:45:52.887Z,4.10
2023-04-14T00:49:57.523Z,4.10
2023-04-14T00:54:01.296Z,4.10
2023-04-14T00:58:04.253Z,4.00
2023-04-14T01:02:07.131Z,4.00
2023-04-14T01:06:11.703Z,4.00
2023-04-14T01:10:14.489Z,3.90
2023-04-14T01:14:22.638Z,3.90
2023-04-14T01:18:28.595Z,3.80
2023-04-14T01:22:34.243Z,3.80
2023-04-14T01:26:37.222Z,3.70
2023-04-14T01:30:48.596Z,3.70
2023-04-14T01:34:54.888Z,3.70
2023-04-14T01:38:57.844Z,3.70
2023-04-14T01:43:03.392Z,3.60
2023-04-14T01:47:08.566Z,3.60
2023-04-14T01:51:13.073Z,3.50
2023-04-14T01:55:16.754Z,3.40
2023-04-14T01:59:20.092Z,3.40
2023-04-14T02:03:23.788Z,3.30
2023-04-14T02:07:28.892Z,3.20
2023-04-14T02:11:32.031Z,3.20
2023-04-14T02:15:36.105Z,3.10
2023-04-14T02:19:39.052Z,3.10
2023-04-14T02:23:43.312Z,3.00
2023-04-14T02:27:49.565Z,3.00
2023-04-14T02:31:54.091Z,3.00
2023-04-14T02:36:00.900Z,3.00
2023-04-14T02:40:09.043Z,2.90
2023-04-14T02:44:14.240Z,2.90
2023-04-14T02:48:19.301Z,2.90
2023-04-14T02:52:24.610Z,2.90
2023-04-14T02:56:29.218Z,2.80
2023-04-14T03:00:32.564Z,2.80
2023-04-14T03:04:36.750Z,2.70
2023-04-14T03:08:41.280Z,2.70
2023-04-14T03:12:46.843Z,2.60
2023-04-14T03:16:53.498Z,2.60
2023-04-14T03:20:57.065Z,2.50
2023-04-14T03:25:00.703Z,2.50
2023-04-14T03:29:05.967Z,2.40
2023-04-14T03:33:11.873Z,2.40
2023-04-14T03:37:16.661Z,2.40
2023-04-14T03:41:20.844Z,2.30
2023-04-14T03:45:25.052Z,2.30
2023-04-14T03:49:28.576Z,2.30
2023-04-14T03:53:34.579Z,2.30
2023-04-14T04:01:42.380Z,2.20
2023-04-14T04:05:45.515Z,2.20
2023-04-14T04:09:48.851Z,2.20
2023-04-14T04:13:52.299Z,2.10
2023-04-14T04:17:56.612Z,2.10
2023-04-14T04:22:00.598Z,2.10
2023-04-14T04:26:03.822Z,2.00
2023-04-14T04:30:08.900Z,2.00
2023-04-14T04:34:13.064Z,2.00
2023-04-14T04:38:16.209Z,2.00
2023-04-14T04:42:19.035Z,2.00
2023-04-14T04:46:30.681Z,2.00
2023-04-14T04:50:34.873Z,2.00
2023-04-14T04:54:37.707Z,2.00
2023-04-14T04:58:40.610Z,1.90
2023-04-14T05:02:43.457Z,2.00
2023-04-14T05:06:47.716Z,1.90
2023-04-14T05:10:50.544Z,1.90
2023-04-14T05:14:53.406Z,2.00
2023-04-14T05:18:56.268Z,2.00
2023-04-14T05:23:00.782Z,2.00
2023-04-14T05:27:13.801Z,2.00
2023-04-14T05:31:17.579Z,2.10
2023-04-14T05:35:20.502Z,2.10
2023-04-14T05:39:24.801Z,2.20
2023-04-14T05:43:27.624Z,2.30
2023-04-14T05:47:30.667Z,2.30
2023-04-14T05:51:33.541Z,2.40
2023-04-14T05:55:37.656Z,2.50
2023-04-14T05:59:40.444Z,2.60
2023-04-14T06:03:43.433Z,2.70
2023-04-14T06:07:47.013Z,2.80
2023-04-14T06:11:51.134Z,2.90
2023-04-14T06:15:54.917Z,3.00
2023-04-14T06:19:58.204Z,3.10
2023-04-14T06:24:01.023Z,3.20
2023-04-14T06:28:05.194Z,3.40
2023-04-14T06:32:08.042Z,3.50
2023-04-14T06:36:10.942Z,3.70
2023-04-14T06:40:14.071Z,3.80
2023-04-14T06:44:18.205Z,4.00
2023-04-14T06:48:21.060Z,4.20
2023-04-14T06:52:23.848Z,4.30
2023-04-14T06:56:26.697Z,4.50
2023-04-14T07:00:30.803Z,4.80
2023-04-14T07:04:33.645Z,4.80
2023-04-14T07:08:37.759Z,5.10
2023-04-14T07:12:40.669Z,5.30
2023-04-14T07:16:44.819Z,5.50
2023-04-14T07:20:47.722Z,5.70
2023-04-14T07:24:50.932Z,5.90
2023-04-14T07:28:53.718Z,6.40
2023-04-14T07:32:58.010Z,6.50
2023-04-14T07:41:12.001Z,7.00
2023-04-14T07:45:14.818Z,7.40
2023-04-14T07:53:23.567Z,8.10
2023-04-14T08:01:29.615Z,9.00
2023-04-14T08:05:32.439Z,9.00
2023-04-14T08:09:36.608Z,9.40
2023-04-14T08:13:39.509Z,9.70
2023-04-14T08:17:42.530Z,10.10
2023-04-14T08:21:45.401Z,10.20
2023-04-14T08:25:49.573Z,10.50
2023-04-14T08:29:52.512Z,10.90
2023-04-14T08:33:55.330Z,11.20
2023-04-14T08:38:01.132Z,11.50
2023-04-14T08:42:06.463Z,11.80
2023-04-14T08:46:10.479Z,12.10
2023-04-14T08:50:14.381Z,12.40
2023-04-14T08:54:18.063Z,12.80
2023-04-14T08:58:22.407Z,13.10
2023-04-14T09:02:26.695Z,13.40
2023-04-14T09:06:29.719Z,13.90
2023-04-14T09:10:32.808Z,13.90
2023-04-14T09:14:37.438Z,14.20
2023-04-14T09:18:40.468Z,14.70
2023-04-14T09:22:44.147Z,14.70
2023-04-14T09:26:47.004Z,15.00
2023-04-14T09:30:51.184Z,15.20
2023-04-14T09:34:56.371Z,15.40
2023-04-14T09:39:00.508Z,15.60
2023-04-14T09:47:08.360Z,16.10
2023-04-14T09:51:13.107Z,16.50
2023-04-14T09:55:16.943Z,16.60
2023-04-14T10:03:34.943Z,17.00
2023-04-14T10:07:47.287Z,17.30
2023-04-14T10:12:09.480Z,17.40
2023-04-14T10:16:12.669Z,17.60
2023-04-14T10:20:17.464Z,17.90
2023-04-14T15:31:47.270Z,21.10
2023-04-14T15:35:51.780Z,21.10
2023-04-14T15:39:54.790Z,21.20
2023-04-14T15:44:27.761Z,21.40
2023-04-14T15:48:31.685Z,21.70
2023-04-14T15:52:37.165Z,22.10
2023-04-14T15:56:40.010Z,22.30
2023-04-14T16:01:42.199Z,22.70
2023-04-14T16:05:45.067Z,22.90
2023-04-14T16:09:53.007Z,23.10
2023-04-14T16:13:55.792Z,23.20
2023-04-14T16:18:21.411Z,23.30
2023-04-14T16:26:50.146Z,23.30
2023-04-14T16:30:53.572Z,23.10
2023-04-14T16:34:56.570Z,22.90
2023-04-14T16:39:04.970Z,22.80
2023-04-14T16:43:09.685Z,22.70
2023-04-14T16:47:12.540Z,22.50
2023-04-14T16:51:15.484Z,22.20
2023-04-14T16:55:18.567Z,22.00
2023-04-14T16:59:22.821Z,21.60
2023-04-14T17:03:25.926Z,21.30
2023-04-14T17:07:28.871Z,20.90
2023-04-14T17:11:31.841Z,20.60
2023-04-14T17:15:36.012Z,20.30
2023-04-14T17:19:38.852Z,19.80
2023-04-14T17:35:59.518Z,18.40
2023-04-14T17:40:03.918Z,18.40
2023-04-14T17:44:15.058Z,18.10
2023-04-14T17:48:18.045Z,17.80
2023-04-14T17:52:22.335Z,17.50
2023-04-14T17:56:25.457Z,17.30
2023-04-14T18:00:29.348Z,17.00
2023-04-14T18:04:32.346Z,16.70
2023-04-14T18:08:36.551Z,16.50
2023-04-14T18:12:39.370Z,16.30
2023-04-14T18:16:42.252Z,16.10
2023-04-14T18:20:45.858Z,15.90
2023-04-14T18:24:50.376Z,15.70
2023-04-14T18:28:53.423Z,15.50
2023-04-14T18:32:56.285Z,15.30
2023-04-14T18:36:59.088Z,15.10
2023-04-14T18:41:04.916Z,15.00
2023-04-14T18:45:08.768Z,14.80
2023-04-14T18:49:11.736Z,14.70
2023-04-14T18:53:14.815Z,14.50
2023-04-14T18:57:19.187Z,14.40
2023-04-14T19:01:22.089Z,14.30
2023-04-14T19:05:25.289Z,14.10
2023-04-14T19:09:28.706Z,14.00
2023-04-14T19:13:33.146Z,13.80
2023-04-14T19:17:35.994Z,13.70
2023-04-14T19:21:38.848Z,13.60
2023-04-14T19:25:41.896Z,13.50
2023-04-14T19:29:46.182Z,13.30
2023-04-14T19:33:49.271Z,13.20
2023-04-14T19:37:55.676Z,13.10
2023-04-14T19:41:58.666Z,13.00
2023-04-14T19:46:05.449Z,12.80
2023-04-14T19:50:08.481Z,12.70
2023-04-14T19:54:12.178Z,12.60
2023-04-14T19:58:15.013Z,12.50
2023-04-14T20:02:19.211Z,12.40
2023-04-14T20:06:22.997Z,12.30
2023-04-14T20:10:25.879Z,12.20
2023-04-14T20:14:29.381Z,12.10
2023-04-14T20:18:33.949Z,12.00
2023-04-14T20:22:37.048Z,11.80
2023-04-14T20:26:43.556Z,11.80
2023-04-14T20:30:48.158Z,11.60
2023-04-14T20:34:54.032Z,11.50
2023-04-14T20:38:56.990Z,11.40
2023-04-14T20:43:00.043Z,11.30
2023-04-14T20:47:03.752Z,11.30
2023-04-14T20:51:08.537Z,11.20
2023-04-14T20:55:11.877Z,11.10
2023-04-14T20:59:14.860Z,11.00
2023-04-14T21:03:18.294Z,10.90
2023-04-14T21:07:22.582Z,10.80
2023-04-14T21:11:25.451Z,10.70
2023-04-14T21:15:54.088Z,10.50
2023-04-14T21:19:51.752Z,10.40
2023-04-14T21:23:55.911Z,10.30
2023-04-14T21:27:58.902Z,10.20
2023-04-14T21:32:01.974Z,10.00
2023-04-14T21:36:05.213Z,9.90
2023-04-14T21:40:11.217Z,9.80
2023-04-14T21:44:15.697Z,9.70
2023-04-14T21:48:19.330Z,9.60
2023-04-14T21:52:22.312Z,9.50
2023-04-14T21:56:26.800Z,9.40
2023-04-14T22:00:29.747Z,9.30
2023-04-14T22:04:36.330Z,9.20
2023-04-14T22:08:40.571Z,9.20
2023-04-14T22:12:45.729Z,9.10
2023-04-14T22:16:48.838Z,9.00
2023-04-14T22:20:51.690Z,8.90
2023-04-14T22:24:54.950Z,8.90
2023-04-14T22:28:59.141Z,8.70
2023-04-14T22:33:03.363Z,8.00
2023-04-14T22:37:06.208Z,8.70
2023-04-14T22:41:08.997Z,8.60
2023-04-14T22:45:13.641Z,8.60
2023-04-14T22:49:16.412Z,8.50
2023-04-14T22:53:19.223Z,8.50
2023-04-14T22:57:24.144Z,8.40
2023-04-14T23:01:29.287Z,8.40
2023-04-14T23:05:32.178Z,8.40
2023-04-14T23:09:34.971Z,8.30
2023-04-14T23:13:37.920Z,8.30
2023-04-14T23:17:42.202Z,8.30
2023-04-14T23:21:46.470Z,8.30
2023-04-14T23:25:49.278Z,8.20
2023-04-14T23:29:52.121Z,8.20
2023-04-14T23:33:56.343Z,8.20
2023-04-14T23:38:02.358Z,8.10
2023-04-14T23:42:05.519Z,8.10
2023-04-14T23:46:08.318Z,8.10
2023-04-14T23:50:13.537Z,8.00
2023-04-14T23:54:16.555Z,8.00
2023-04-14T23:58:26.427Z,8.00
